createdAt,value
2022-09-26T00:00:37.291Z,284.50
2022-09-26T00:03:25.204Z,300.97
2022-09-26T00:06:13.375Z,273.33
2022-09-26T00:09:01.326Z,270.27
2022-09-26T00:11:49.543Z,293.13
2022-09-26T00:14:38.777Z,287.27
2022-09-26T00:17:26.757Z,284.23
2022-09-26T00:20:14.703Z,270.60
2022-09-26T00:23:02.632Z,262.70
2022-09-26T00:25:52.224Z,261.47
2022-09-26T00:28:40.149Z,283.30
2022-09-26T00:31:32.072Z,280.63
2022-09-26T00:34:20.854Z,279.43
2022-09-26T00:37:09.679Z,265.83
2022-09-26T00:39:57.576Z,293.47
2022-09-26T00:42:46.895Z,265.50
2022-09-26T00:45:34.870Z,280.13
2022-09-26T00:48:24.676Z,262.13
2022-09-26T00:51:13.144Z,261.50
2022-09-26T00:54:01.310Z,277.73
2022-09-26T00:56:54.005Z,267.67
2022-09-26T00:59:46.513Z,284.37
2022-09-26T01:02:34.780Z,291.57
2022-09-26T01:05:25.448Z,291.17
2022-09-26T01:08:15.858Z,293.97
2022-09-26T01:11:04.915Z,274.13
2022-09-26T01:13:55.618Z,279.00
2022-09-26T01:16:51.116Z,296.47
2022-09-26T01:19:49.314Z,292.60
2022-09-26T01:23:19.484Z,282.23
2022-09-26T01:26:41.655Z,260.47
2022-09-26T01:30:03.551Z,287.27
2022-09-26T01:33:32.024Z,288.70
2022-09-26T01:36:49.330Z,259.13
2022-09-26T01:39:47.678Z,266.07
2022-09-26T01:42:43.953Z,272.53
2022-09-26T01:45:43.084Z,275.90
2022-09-26T01:48:39.296Z,268.47
2022-09-26T01:51:33.947Z,273.07
2022-09-26T01:54:26.845Z,266.33
2022-09-26T01:57:20.230Z,267.77
2022-09-26T02:00:12.458Z,279.80
2022-09-26T02:03:07.326Z,296.03
2022-09-26T02:06:01.556Z,290.93
2022-09-26T02:08:54.016Z,277.20
2022-09-26T02:11:46.599Z,277.43
2022-09-26T02:14:41.761Z,274.70
2022-09-26T02:17:34.296Z,276.53
2022-09-26T02:20:27.896Z,291.03
2022-09-26T02:23:17.332Z,292.73
2022-09-26T02:26:06.453Z,272.93
2022-09-26T02:28:54.337Z,271.10
2022-09-26T02:31:49.588Z,282.60
2022-09-26T02:34:37.800Z,270.37
2022-09-26T02:37:28.770Z,286.83
2022-09-26T02:40:20.153Z,283.97
2022-09-26T02:43:53.069Z,269.60
2022-09-26T02:46:55.981Z,256.37
2022-09-26T02:50:08.838Z,261.83
2022-09-26T02:53:08.787Z,239.27
2022-09-26T02:56:14.245Z,258.50
2022-09-26T02:59:10.152Z,261.13
2022-09-26T03:02:09.732Z,271.57
2022-09-26T03:05:04.463Z,246.40
2022-09-26T03:07:57.500Z,260.13
2022-09-26T03:10:49.217Z,284.27
2022-09-26T03:13:40.356Z,257.73
2022-09-26T03:16:31.411Z,238.13
2022-09-26T03:19:27.332Z,270.23
2022-09-26T03:22:16.174Z,257.87
2022-09-26T03:25:06.291Z,252.83
2022-09-26T03:27:58.556Z,255.70
2022-09-26T03:30:48.599Z,271.27
2022-09-26T03:33:47.316Z,241.10
2022-09-26T03:36:35.649Z,274.80
2022-09-26T03:39:24.602Z,257.70
2022-09-26T03:42:21.389Z,253.30
2022-09-26T03:45:11.930Z,242.53
2022-09-26T03:48:20.064Z,221.50
2022-09-26T03:51:09.545Z,241.40
2022-09-26T03:53:57.391Z,238.07
2022-09-26T03:56:47.091Z,242.70
2022-09-26T03:59:35.072Z,258.23
2022-09-26T04:02:23.837Z,251.07
2022-09-26T04:05:27.495Z,256.40
2022-09-26T04:08:15.443Z,237.50
2022-09-26T04:11:06.580Z,235.37
2022-09-26T04:13:54.684Z,241.43
2022-09-26T04:16:48.303Z,238.57
2022-09-26T04:19:44.823Z,251.10
2022-09-26T04:22:34.060Z,233.47
2022-09-26T04:25:22.427Z,241.93
2022-09-26T04:28:11.179Z,246.90
2022-09-26T04:30:59.243Z,229.23
2022-09-26T04:33:47.108Z,233.63
2022-09-26T04:36:34.995Z,230.90
2022-09-26T04:39:24.756Z,246.93
2022-09-26T04:42:12.636Z,240.13
2022-09-26T04:45:00.786Z,264.50
2022-09-26T04:47:49.694Z,271.17
2022-09-26T04:50:46.272Z,240.93
2022-09-26T04:53:34.697Z,260.47
2022-09-26T04:56:33.295Z,274.40
2022-09-26T04:59:21.252Z,269.13
2022-09-26T05:02:20.893Z,263.33
2022-09-26T05:05:09.860Z,266.60
2022-09-26T05:07:58.042Z,280.73
2022-09-26T05:10:53.343Z,260.50
2022-09-26T05:13:43.616Z,284.03
2022-09-26T05:16:31.785Z,261.83
2022-09-26T05:19:22.072Z,276.00
2022-09-26T05:22:31.456Z,270.13
2022-09-26T05:25:36.586Z,270.30
2022-09-26T05:28:24.980Z,256.90
2022-09-26T05:31:14.332Z,267.27
2022-09-26T05:34:02.304Z,277.27
2022-09-26T05:36:51.780Z,269.00
2022-09-26T05:39:57.232Z,264.03
2022-09-26T05:42:45.378Z,266.17
2022-09-26T05:45:33.312Z,273.67
2022-09-26T05:48:24.894Z,264.97
2022-09-26T05:51:14.929Z,274.23
2022-09-26T05:54:04.934Z,276.60
2022-09-26T05:56:56.455Z,270.70
2022-09-26T05:59:59.486Z,258.27
2022-09-26T06:02:47.445Z,276.23
2022-09-26T06:05:45.319Z,280.70
2022-09-26T06:08:38.031Z,285.07
2022-09-26T06:11:44.049Z,273.00
2022-09-26T06:14:32.015Z,276.73
2022-09-26T06:17:20.293Z,301.40
2022-09-26T06:20:09.310Z,281.07
2022-09-26T06:22:59.128Z,276.13
2022-09-26T06:25:47.842Z,288.83
2022-09-26T06:28:36.719Z,296.37
2022-09-26T06:31:26.114Z,301.13
2022-09-26T06:34:32.530Z,306.20
2022-09-26T06:37:29.858Z,299.63
2022-09-26T06:40:19.174Z,292.88
2022-09-26T06:43:07.304Z,303.92
2022-09-26T06:46:15.272Z,261.75
2022-09-26T06:49:14.463Z,311.50
2022-09-26T06:52:07.762Z,294.95
2022-09-26T06:54:55.845Z,309.15
2022-09-26T06:57:45.402Z,304.02
2022-09-26T07:00:35.626Z,302.52
2022-09-26T07:03:45.172Z,329.08
2022-09-26T07:06:52.550Z,308.15
2022-09-26T07:09:40.988Z,312.25
2022-09-26T07:12:49.586Z,296.85
2022-09-26T07:15:37.873Z,295.75
2022-09-26T07:18:46.550Z,306.73
2022-09-26T07:21:53.345Z,274.02
2022-09-26T07:24:48.689Z,301.48
2022-09-26T07:27:37.005Z,298.73
2022-09-26T07:30:28.020Z,310.05
2022-09-26T07:33:20.969Z,322.45
2022-09-26T07:36:12.745Z,305.80
2022-09-26T07:39:02.108Z,305.40
2022-09-26T07:41:50.222Z,320.60
2022-09-26T07:45:20.465Z,308.27
2022-09-26T07:48:05.553Z,304.97
2022-09-26T07:51:12.258Z,282.25
2022-09-26T07:54:06.552Z,279.10
2022-09-26T07:57:16.987Z,305.13
2022-09-26T08:00:31.337Z,290.25
2022-09-26T08:03:29.565Z,296.35
2022-09-26T08:06:20.767Z,323.52
2022-09-26T08:09:09.038Z,303.35
2022-09-26T08:12:15.568Z,297.65
2022-09-26T08:15:29.730Z,307.83
2022-09-26T08:18:27.986Z,305.67
2022-09-26T08:21:16.438Z,320.90
2022-09-26T08:24:04.707Z,321.38
2022-09-26T08:26:55.672Z,339.85
2022-09-26T08:29:48.398Z,312.70
2022-09-26T08:32:37.179Z,320.30
2022-09-26T08:35:26.479Z,312.65
2022-09-26T08:38:40.735Z,313.80
2022-09-26T08:45:47.485Z,314.17
2022-09-26T08:49:16.014Z,299.33
2022-09-26T08:52:17.766Z,326.02
2022-09-26T08:55:14.179Z,327.30
2022-09-26T08:58:05.569Z,329.30
2022-09-26T09:00:59.961Z,327.58
2022-09-26T09:03:54.130Z,313.27
2022-09-26T09:06:43.527Z,291.38
2022-09-26T09:09:32.798Z,286.02
2022-09-26T09:13:03.122Z,293.08
2022-09-26T09:16:19.435Z,295.83
2022-09-26T09:19:31.280Z,285.80
2022-09-26T09:23:08.419Z,309.75
2022-09-26T09:29:52.529Z,262.63
2022-09-26T09:33:04.122Z,285.27
2022-09-26T09:36:09.693Z,293.35
2022-09-26T09:39:07.896Z,303.73
2022-09-26T09:42:32.106Z,283.10
2022-09-26T09:45:28.894Z,300.17
2022-09-26T09:48:17.176Z,329.13
2022-09-26T09:51:19.773Z,321.52
2022-09-26T09:54:22.677Z,302.38
2022-09-26T09:57:34.634Z,323.88
2022-09-26T10:00:24.317Z,303.02
2022-09-26T10:03:27.726Z,312.98
2022-09-26T10:06:45.475Z,320.00
2022-09-26T10:09:35.280Z,312.50
2022-09-26T10:13:07.648Z,286.13
2022-09-26T10:16:15.693Z,303.30
2022-09-26T10:19:17.688Z,311.02
2022-09-26T10:22:09.332Z,312.98
2022-09-26T10:25:02.762Z,303.80
2022-09-26T10:27:55.060Z,305.00
2022-09-26T10:30:50.030Z,318.95
2022-09-26T10:33:45.942Z,290.40
2022-09-26T10:36:37.301Z,296.38
2022-09-26T10:39:43.724Z,307.60
2022-09-26T10:42:32.529Z,293.45
2022-09-26T10:45:29.153Z,311.70
2022-09-26T10:48:47.137Z,295.63
2022-09-26T10:52:01.541Z,307.33
2022-09-26T10:54:57.933Z,294.27
2022-09-26T10:57:50.578Z,325.02
2022-09-26T11:00:44.217Z,329.33
2022-09-26T11:03:44.170Z,315.15
2022-09-26T11:06:45.526Z,310.77
2022-09-26T11:09:58.945Z,320.98
2022-09-26T11:13:03.322Z,318.92
2022-09-26T11:16:01.212Z,309.20
2022-09-26T11:18:58.341Z,329.17
2022-09-26T11:21:52.201Z,313.58
2022-09-26T11:24:47.823Z,293.80
2022-09-26T11:27:43.821Z,291.70
2022-09-26T11:30:40.612Z,289.08
2022-09-26T11:33:30.626Z,305.40
2022-09-26T11:37:02.380Z,271.20
2022-09-26T11:40:09.532Z,267.35
2022-09-26T11:43:16.046Z,276.92
2022-09-26T11:46:27.241Z,293.55
2022-09-26T11:49:46.019Z,285.25
2022-09-26T11:53:04.778Z,289.17
2022-09-26T11:56:08.200Z,294.52
2022-09-26T11:59:04.632Z,274.77
2022-09-26T12:02:03.541Z,286.67
2022-09-26T12:05:03.863Z,293.23
2022-09-26T12:08:05.687Z,284.27
2022-09-26T12:11:04.567Z,288.00
2022-09-26T12:14:00.073Z,278.80
2022-09-26T12:16:55.079Z,278.08
2022-09-26T12:19:52.285Z,302.83
2022-09-26T12:22:47.871Z,286.13
2022-09-26T12:25:52.633Z,283.88
2022-09-26T12:28:53.688Z,268.10
2022-09-26T12:32:01.414Z,285.95
2022-09-26T12:35:19.716Z,275.67
2022-09-26T12:38:28.333Z,266.90
2022-09-26T12:41:45.480Z,250.52
2022-09-26T12:44:44.209Z,258.92
2022-09-26T12:47:53.473Z,252.88
2022-09-26T12:50:50.255Z,237.95
2022-09-26T12:53:59.162Z,254.80
2022-09-26T12:56:54.645Z,245.82
2022-09-26T12:59:59.749Z,247.00
2022-09-26T13:03:09.692Z,245.93
2022-09-26T13:06:27.311Z,250.90
2022-09-26T13:09:29.477Z,244.00
2022-09-26T13:12:33.405Z,272.75
2022-09-26T13:15:30.380Z,273.73
2022-09-26T13:18:26.672Z,243.25
2022-09-26T13:21:19.918Z,269.38
2022-09-26T13:24:14.049Z,274.75
2022-09-26T13:27:12.130Z,264.15
2022-09-26T13:30:05.474Z,243.10
2022-09-26T13:33:01.317Z,265.55
2022-09-26T13:35:52.835Z,258.05
2022-09-26T13:38:52.946Z,267.23
2022-09-26T13:41:47.568Z,287.92
2022-09-26T13:44:53.766Z,272.75
2022-09-26T13:47:53.689Z,280.42
2022-09-26T13:50:44.815Z,270.85
2022-09-26T13:53:37.906Z,271.48
2022-09-26T13:56:31.208Z,263.85
2022-09-26T13:59:32.411Z,256.08
2022-09-26T14:02:28.382Z,269.38
2022-09-26T14:05:49.790Z,282.75
2022-09-26T14:09:15.315Z,266.20
2022-09-26T14:12:31.786Z,285.33
2022-09-26T14:15:24.031Z,275.45
2022-09-26T14:18:26.373Z,289.45
2022-09-26T14:21:32.835Z,285.70
2022-09-26T14:24:33.576Z,280.98
2022-09-26T14:27:28.901Z,272.95
2022-09-26T14:30:29.290Z,278.60
2022-09-26T14:33:17.691Z,277.98
2022-09-26T14:36:25.346Z,276.38
2022-09-26T14:39:26.879Z,269.13
2022-09-26T14:42:23.814Z,272.83
2022-09-26T14:45:23.042Z,269.00
2022-09-26T14:48:20.309Z,277.52
2022-09-26T14:51:26.188Z,267.13
2022-09-26T14:54:22.840Z,263.58
2022-09-26T14:57:22.037Z,268.95
2022-09-26T15:00:40.377Z,272.52
2022-09-26T15:03:29.598Z,258.58
2022-09-26T15:06:17.929Z,282.67
2022-09-26T15:09:10.977Z,275.25
2022-09-26T15:12:00.842Z,279.58
2022-09-26T15:14:53.457Z,280.85
2022-09-26T15:17:49.399Z,260.50
2022-09-26T15:20:41.744Z,258.45
2022-09-26T15:23:33.258Z,232.25
2022-09-26T15:26:24.415Z,264.48
2022-09-26T15:29:14.530Z,257.90
2022-09-26T15:32:03.224Z,236.90
2022-09-26T15:34:53.283Z,271.33
2022-09-26T15:37:41.317Z,270.92
2022-09-26T15:40:31.173Z,267.10
2022-09-26T15:43:20.609Z,270.63
2022-09-26T15:46:23.356Z,255.43
2022-09-26T15:49:13.926Z,269.70
2022-09-26T15:52:03.635Z,278.33
2022-09-26T15:54:52.460Z,307.35
2022-09-26T15:57:40.737Z,299.35
2022-09-26T16:00:33.021Z,298.13
2022-09-26T16:03:39.774Z,302.45
2022-09-26T16:06:31.038Z,291.38
2022-09-26T16:09:24.326Z,301.75
2022-09-26T16:12:20.114Z,310.17
2022-09-26T16:15:17.506Z,311.85
2022-09-26T16:18:05.734Z,299.08
2022-09-26T16:21:15.965Z,287.75
2022-09-26T16:24:27.967Z,306.05
2022-09-26T16:27:24.644Z,307.70
2022-09-26T16:30:42.766Z,320.55
2022-09-26T16:33:32.842Z,311.35
2022-09-26T16:36:23.374Z,318.35
2022-09-26T16:39:20.989Z,306.48
2022-09-26T16:42:18.520Z,297.92
2022-09-26T16:45:07.613Z,301.50
2022-09-26T16:47:55.889Z,303.30
2022-09-26T16:50:43.968Z,290.38
2022-09-26T16:53:32.291Z,302.45
2022-09-26T16:56:23.741Z,289.05
2022-09-26T16:59:18.441Z,299.02
2022-09-26T17:02:11.012Z,293.02
2022-09-26T17:04:59.068Z,302.83
2022-09-26T17:07:49.639Z,318.23
2022-09-26T17:10:38.917Z,309.20
2022-09-26T17:13:30.592Z,294.95
2022-09-26T17:16:20.458Z,315.95
2022-09-26T17:19:11.969Z,302.15
2022-09-26T17:22:01.413Z,304.55
2022-09-26T17:24:51.040Z,309.90
2022-09-26T17:27:40.186Z,329.48
2022-09-26T17:30:28.536Z,319.10
2022-09-26T17:33:18.009Z,315.92
2022-09-26T17:36:10.581Z,310.73
2022-09-26T17:38:59.354Z,304.02
2022-09-26T17:41:48.075Z,324.77
2022-09-26T17:44:36.943Z,314.70
2022-09-26T17:47:25.391Z,305.25
2022-09-26T17:50:22.089Z,323.98
2022-09-26T17:53:20.799Z,315.70
2022-09-26T17:56:08.869Z,316.80
2022-09-26T17:58:56.935Z,319.45
2022-09-26T18:01:45.581Z,326.83
2022-09-26T18:04:34.539Z,319.77
2022-09-26T18:07:24.274Z,314.45
2022-09-26T18:10:19.324Z,307.45
2022-09-26T18:13:13.583Z,322.85
2022-09-26T18:16:02.203Z,302.05
2022-09-26T18:18:50.660Z,295.42
2022-09-26T18:21:40.010Z,304.17
2022-09-26T18:24:30.578Z,287.77
2022-09-26T18:27:18.757Z,303.60
2022-09-26T18:30:08.150Z,297.60
2022-09-26T18:32:56.720Z,290.08
2022-09-26T18:35:45.559Z,297.88
2022-09-26T18:38:35.322Z,307.02
2022-09-26T18:41:26.867Z,293.55
2022-09-26T18:44:18.148Z,315.65
2022-09-26T18:47:13.963Z,298.35
2022-09-26T18:50:02.627Z,319.70
2022-09-26T18:52:51.990Z,330.88
2022-09-26T18:55:57.665Z,314.55
2022-09-26T18:58:47.703Z,319.02
2022-09-26T19:01:38.212Z,319.88
2022-09-26T19:04:27.144Z,309.88
2022-09-26T19:07:21.093Z,325.33
2022-09-26T19:10:15.122Z,307.10
2022-09-26T19:13:03.744Z,317.23
2022-09-26T19:15:53.528Z,319.90
2022-09-26T19:18:41.987Z,320.23
2022-09-26T19:21:34.173Z,331.35
2022-09-26T19:24:28.807Z,334.75
2022-09-26T19:27:20.105Z,314.95
2022-09-26T19:30:15.068Z,311.73
2022-09-26T19:33:04.566Z,319.35
2022-09-26T19:35:53.042Z,321.10
2022-09-26T19:38:41.089Z,321.27
2022-09-26T19:41:29.138Z,342.02
2022-09-26T19:44:17.231Z,328.50
2022-09-26T19:47:05.387Z,331.45
2022-09-26T19:49:54.814Z,322.58
2022-09-26T19:52:42.949Z,317.55
2022-09-26T19:55:32.407Z,315.00
2022-09-26T19:58:22.749Z,307.27
2022-09-26T20:01:16.298Z,335.97
2022-09-26T20:04:04.352Z,324.97
2022-09-26T20:06:53.739Z,300.77
2022-09-26T20:09:42.061Z,306.80
2022-09-26T20:12:30.198Z,293.30
2022-09-26T20:15:20.198Z,303.40
2022-09-26T20:18:09.134Z,308.37
2022-09-26T20:20:57.984Z,300.43
2022-09-26T20:23:47.918Z,308.37
2022-09-26T20:26:36.088Z,311.07
2022-09-26T20:29:24.341Z,292.67
2022-09-26T20:32:15.494Z,292.47
2022-09-26T20:35:04.333Z,295.67
2022-09-26T20:37:53.340Z,289.93
2022-09-26T20:40:42.988Z,306.07
2022-09-26T20:43:34.426Z,284.77
2022-09-26T20:46:32.189Z,290.83
2022-09-26T20:49:24.390Z,288.50
2022-09-26T20:52:19.550Z,307.47
2022-09-26T20:55:08.335Z,285.90
2022-09-26T20:57:57.738Z,268.30
2022-09-26T21:00:46.146Z,295.00
2022-09-26T21:03:34.200Z,264.73
2022-09-26T21:06:24.870Z,283.20
2022-09-26T21:09:18.690Z,267.17
2022-09-26T21:12:12.834Z,281.50
2022-09-26T21:15:02.239Z,291.80
2022-09-26T21:17:52.081Z,292.20
2022-09-26T21:20:40.102Z,283.27
2022-09-26T21:23:51.755Z,287.67
2022-09-26T21:26:39.756Z,289.87
2022-09-26T21:29:28.302Z,301.07
2022-09-26T21:32:21.855Z,281.03
2022-09-26T21:35:10.813Z,289.47
2022-09-26T21:38:01.732Z,289.23
2022-09-26T21:40:54.013Z,296.97
2022-09-26T21:43:46.091Z,307.67
2022-09-26T21:46:34.109Z,297.13
2022-09-26T21:49:23.435Z,300.27
2022-09-26T21:52:17.441Z,292.97
2022-09-26T21:55:07.285Z,289.57
2022-09-26T21:57:56.008Z,280.80
2022-09-26T22:00:43.992Z,323.20
2022-09-26T22:03:32.041Z,294.93
2022-09-26T22:06:21.525Z,286.07
2022-09-26T22:09:10.519Z,298.20
2022-09-26T22:11:59.154Z,286.27
2022-09-26T22:14:47.236Z,276.27
2022-09-26T22:17:35.284Z,297.50
2022-09-26T22:20:23.390Z,295.77
2022-09-26T22:23:12.876Z,300.60
2022-09-26T22:26:01.338Z,314.73
2022-09-26T22:28:49.929Z,312.67
2022-09-26T22:31:38.148Z,298.17
2022-09-26T22:34:26.845Z,305.10
2022-09-26T22:37:14.990Z,307.23
2022-09-26T22:40:05.293Z,297.97
2022-09-26T22:42:53.329Z,311.37
2022-09-26T22:45:41.396Z,308.60
2022-09-26T22:48:31.366Z,308.47
2022-09-26T22:51:19.518Z,303.87
2022-09-26T22:54:07.824Z,322.83
2022-09-26T22:56:57.386Z,303.07
2022-09-26T22:59:45.485Z,309.13
2022-09-26T23:02:33.636Z,315.73
2022-09-26T23:05:21.899Z,315.80
2022-09-26T23:08:10.266Z,307.33
2022-09-26T23:10:58.313Z,306.87
2022-09-26T23:13:48.053Z,311.97
2022-09-26T23:16:36.226Z,313.70
2022-09-26T23:19:24.280Z,313.70
2022-09-26T23:22:13.517Z,297.37
2022-09-26T23:25:01.534Z,314.87
2022-09-26T23:27:50.295Z,301.97
2022-09-26T23:30:39.753Z,311.47
2022-09-26T23:33:27.843Z,315.57
2022-09-26T23:36:16.189Z,320.93
2022-09-26T23:39:04.422Z,317.87
2022-09-26T23:41:52.589Z,304.93
2022-09-26T23:44:40.639Z,301.57
2022-09-26T23:47:30.031Z,297.73
2022-09-26T23:50:18.239Z,313.00
2022-09-26T23:53:06.867Z,308.47
2022-09-26T23:56:04.411Z,301.00
2022-09-26T23:58:52.511Z,310.33
